createdAt,value
2023-05-24T00:00:40.320Z,89.87
2023-05-24T00:01:40.174Z,89.87
2023-05-24T00:02:40.251Z,89.77
2023-05-24T00:03:40.201Z,89.77
2023-05-24T00:04:40.185Z,89.77
2023-05-24T00:05:40.087Z,89.77
2023-05-24T00:06:40.115Z,89.77
2023-05-24T00:07:40.067Z,89.81
2023-05-24T00:08:40.121Z,89.92
2023-05-24T00:09:40.049Z,90.02
2023-05-24T00:10:40.194Z,90.12
2023-05-24T00:11:40.007Z,90.12
2023-05-24T00:12:40.043Z,90.12
2023-05-24T00:13:39.993Z,90.23
2023-05-24T00:14:40.030Z,90.33
2023-05-24T00:15:40.037Z,90.44
2023-05-24T00:16:40.059Z,90.44
2023-05-24T00:17:40.030Z,90.53
2023-05-24T00:18:39.972Z,90.53
2023-05-24T00:19:40.038Z,90.64
2023-05-24T00:20:40.116Z,90.64
2023-05-24T00:21:39.915Z,90.64
2023-05-24T00:22:39.915Z,90.64
2023-05-24T00:23:39.915Z,90.78
2023-05-24T00:24:39.912Z,90.89
2023-05-24T00:25:39.854Z,91.09
2023-05-24T00:26:39.966Z,91.20
2023-05-24T00:27:39.837Z,91.20
2023-05-24T00:28:39.904Z,91.20
2023-05-24T00:29:39.834Z,91.20
2023-05-24T00:30:40.049Z,91.30
2023-05-24T00:31:40.052Z,90.99
2023-05-24T00:32:39.870Z,90.89
2023-05-24T00:33:40.222Z,90.89
2023-05-24T00:34:39.798Z,90.93
2023-05-24T00:35:39.771Z,90.93
2023-05-24T00:36:39.792Z,90.93
2023-05-24T00:37:39.717Z,90.93
2023-05-24T00:38:39.752Z,90.93
2023-05-24T00:39:39.734Z,90.83
2023-05-24T00:40:39.771Z,90.72
2023-05-24T00:41:39.716Z,90.72
2023-05-24T00:42:39.719Z,90.72
2023-05-24T00:43:39.688Z,90.72
2023-05-24T00:44:39.689Z,90.72
2023-05-24T00:45:39.649Z,90.62
2023-05-24T00:46:39.753Z,90.66
2023-05-24T00:47:39.696Z,90.77
2023-05-24T00:48:39.645Z,90.77
2023-05-24T00:49:39.676Z,90.87
2023-05-24T00:50:39.661Z,90.87
2023-05-24T00:51:39.768Z,90.87
2023-05-24T00:52:39.648Z,90.97
2023-05-24T00:53:39.560Z,91.08
2023-05-24T00:54:39.566Z,91.18
2023-05-24T00:55:39.557Z,91.28
2023-05-24T00:56:39.576Z,91.28
2023-05-24T00:57:39.537Z,91.18
2023-05-24T00:58:39.516Z,91.22
2023-05-24T00:59:39.483Z,91.33
2023-05-24T01:00:39.647Z,91.33
2023-05-24T01:01:39.519Z,91.33
2023-05-24T01:02:39.583Z,91.43
2023-05-24T01:03:39.693Z,91.43
2023-05-24T01:04:39.454Z,91.53
2023-05-24T01:05:39.445Z,91.53
2023-05-24T01:06:39.483Z,91.53
2023-05-24T01:07:39.416Z,91.53
2023-05-24T01:08:39.442Z,91.53
2023-05-24T01:09:39.372Z,91.53
2023-05-24T01:10:39.469Z,91.53
2023-05-24T01:11:39.354Z,91.64
2023-05-24T01:12:39.750Z,91.74
2023-05-24T01:13:39.359Z,91.64
2023-05-24T01:14:39.377Z,91.74
2023-05-24T01:15:39.366Z,91.68
2023-05-24T01:16:39.393Z,91.78
2023-05-24T01:17:39.326Z,91.78
2023-05-24T01:18:39.311Z,91.78
2023-05-24T01:19:39.312Z,91.89
2023-05-24T01:20:39.351Z,91.89
2023-05-24T01:21:39.245Z,91.99
2023-05-24T01:22:39.280Z,92.10
2023-05-24T01:23:39.248Z,92.30
2023-05-24T01:24:39.273Z,92.41
2023-05-24T01:25:39.247Z,92.51
2023-05-24T01:26:39.222Z,92.51
2023-05-24T01:27:39.176Z,92.61
2023-05-24T01:28:39.229Z,92.51
2023-05-24T01:29:39.190Z,92.41
2023-05-24T01:30:39.241Z,92.30
2023-05-24T01:31:39.189Z,92.20
2023-05-24T01:32:39.605Z,92.24
2023-05-24T01:33:39.119Z,92.24
2023-05-24T01:34:39.124Z,92.24
2023-05-24T01:35:39.228Z,92.24
2023-05-24T01:36:39.123Z,92.35
2023-05-24T01:37:39.081Z,92.55
2023-05-24T01:38:39.142Z,92.66
2023-05-24T01:39:39.085Z,92.66
2023-05-24T01:40:39.101Z,92.76
2023-05-24T01:41:39.076Z,92.66
2023-05-24T01:42:39.071Z,92.66
2023-05-24T01:43:39.018Z,92.76
2023-05-24T01:44:39.017Z,92.76
2023-05-24T01:45:38.995Z,92.66
2023-05-24T01:46:39.139Z,92.76
2023-05-24T01:47:38.965Z,92.66
2023-05-24T01:48:39.000Z,92.69
2023-05-24T01:49:38.928Z,92.69
2023-05-24T01:50:38.932Z,92.69
2023-05-24T01:51:38.983Z,92.69
2023-05-24T01:52:39.536Z,92.69
2023-05-24T01:53:39.152Z,92.69
2023-05-24T01:54:38.933Z,92.69
2023-05-24T01:55:38.901Z,92.69
2023-05-24T01:56:38.891Z,92.69
2023-05-24T01:57:38.839Z,92.69
2023-05-24T01:58:38.857Z,92.69
2023-05-24T01:59:38.938Z,92.69
2023-05-24T02:00:38.916Z,92.69
2023-05-24T02:01:38.922Z,92.80
2023-05-24T02:02:38.895Z,92.74
2023-05-24T02:03:38.823Z,92.84
2023-05-24T02:04:38.800Z,92.84
2023-05-24T02:05:38.826Z,92.94
2023-05-24T02:06:38.769Z,92.94
2023-05-24T02:07:38.781Z,92.94
2023-05-24T02:08:38.913Z,93.05
2023-05-24T02:09:38.727Z,92.94
2023-05-24T02:10:38.733Z,93.05
2023-05-24T02:11:38.685Z,93.05
2023-05-24T02:12:38.966Z,93.16
2023-05-24T02:13:38.730Z,93.26
2023-05-24T02:14:39.383Z,93.16
2023-05-24T02:15:38.637Z,93.16
2023-05-24T02:16:38.720Z,93.16
2023-05-24T02:17:38.729Z,93.16
2023-05-24T02:18:38.635Z,93.16
2023-05-24T02:19:38.758Z,93.26
2023-05-24T02:20:38.690Z,93.26
2023-05-24T02:21:38.586Z,93.26
2023-05-24T02:22:38.589Z,93.16
2023-05-24T02:23:38.727Z,93.26
2023-05-24T02:24:38.622Z,93.26
2023-05-24T02:25:38.551Z,93.16
2023-05-24T02:26:38.543Z,93.16
2023-05-24T02:27:38.525Z,93.05
2023-05-24T02:28:38.531Z,92.94
2023-05-24T02:29:38.479Z,92.99
2023-05-24T02:30:38.548Z,92.88
2023-05-24T02:31:38.655Z,92.78
2023-05-24T02:32:38.505Z,92.78
2023-05-24T02:33:38.449Z,92.68
2023-05-24T02:34:39.112Z,92.57
2023-05-24T02:35:38.481Z,92.57
2023-05-24T02:36:38.499Z,92.57
2023-05-24T02:37:38.408Z,92.57
2023-05-24T02:38:38.420Z,92.68
2023-05-24T02:39:38.427Z,92.68
2023-05-24T02:40:38.446Z,92.78
2023-05-24T02:41:38.445Z,92.88
2023-05-24T02:42:38.396Z,92.99
2023-05-24T02:43:38.344Z,92.99
2023-05-24T02:44:38.367Z,93.10
2023-05-24T02:45:38.341Z,93.20
2023-05-24T02:46:45.490Z,93.30
2023-05-24T02:47:39.024Z,93.35
2023-05-24T02:48:40.078Z,93.45
2023-05-24T02:49:38.276Z,93.45
2023-05-24T02:50:38.330Z,93.41
2023-05-24T02:51:38.258Z,93.30
2023-05-24T02:52:38.308Z,93.35
2023-05-24T02:53:38.261Z,93.24
2023-05-24T02:54:38.313Z,93.24
2023-05-24T02:55:38.220Z,93.24
2023-05-24T02:56:38.244Z,93.24
2023-05-24T02:57:38.241Z,93.24
2023-05-24T02:58:38.208Z,93.14
2023-05-24T02:59:38.168Z,93.14
2023-05-24T03:00:38.197Z,93.14
2023-05-24T03:01:38.154Z,93.24
2023-05-24T03:02:38.502Z,93.35
2023-05-24T03:03:38.279Z,93.55
2023-05-24T03:04:38.201Z,93.55
2023-05-24T03:05:38.139Z,93.66
2023-05-24T03:06:38.114Z,93.66
2023-05-24T03:07:38.149Z,93.70
2023-05-24T03:08:38.138Z,93.60
2023-05-24T03:09:38.139Z,93.60
2023-05-24T03:10:38.040Z,93.49
2023-05-24T03:11:38.059Z,93.49
2023-05-24T03:12:38.042Z,93.39
2023-05-24T03:13:38.008Z,93.39
2023-05-24T03:14:38.206Z,93.39
2023-05-24T03:15:38.079Z,93.39
2023-05-24T03:16:38.053Z,93.39
2023-05-24T03:17:38.044Z,93.49
2023-05-24T03:18:37.950Z,93.60
2023-05-24T03:19:37.988Z,93.55
2023-05-24T03:20:38.142Z,93.55
2023-05-24T03:21:37.953Z,93.66
2023-05-24T03:22:37.918Z,93.76
2023-05-24T03:23:37.912Z,93.87
2023-05-24T03:24:37.883Z,93.82
2023-05-24T03:25:37.912Z,93.72
2023-05-24T03:26:37.887Z,93.72
2023-05-24T03:27:37.851Z,93.62
2023-05-24T03:28:37.865Z,93.47
2023-05-24T03:29:37.842Z,93.26
2023-05-24T03:30:37.860Z,93.16
2023-05-24T03:31:37.880Z,92.80
2023-05-24T03:32:37.796Z,92.49
2023-05-24T03:33:37.799Z,92.18
2023-05-24T03:34:37.844Z,91.83
2023-05-24T03:35:37.773Z,91.41
2023-05-24T03:36:37.801Z,91.31
2023-05-24T03:37:37.773Z,91.20
2023-05-24T03:38:37.735Z,91.06
2023-05-24T03:39:37.727Z,90.75
2023-05-24T03:40:37.761Z,90.44
2023-05-24T03:41:37.750Z,90.12
2023-05-24T03:42:37.699Z,90.02
2023-05-24T03:43:37.769Z,89.67
2023-05-24T03:44:37.661Z,89.36
2023-05-24T03:45:40.104Z,89.25
2023-05-24T03:46:37.733Z,89.15
2023-05-24T03:47:37.699Z,89.04
2023-05-24T03:48:37.601Z,88.63
2023-05-24T03:49:37.628Z,88.53
2023-05-24T03:50:37.609Z,88.42
2023-05-24T03:51:37.641Z,88.11
2023-05-24T03:52:37.587Z,87.90
2023-05-24T03:53:37.622Z,87.90
2023-05-24T03:54:37.557Z,87.87
2023-05-24T03:55:37.791Z,87.76
2023-05-24T03:56:37.561Z,87.76
2023-05-24T03:57:37.545Z,87.76
2023-05-24T03:58:37.498Z,87.87
2023-05-24T03:59:39.794Z,87.87
2023-05-24T04:00:37.493Z,87.82
2023-05-24T04:01:37.525Z,87.62
2023-05-24T04:02:37.509Z,87.41
2023-05-24T04:03:37.550Z,87.41
2023-05-24T04:04:37.465Z,87.27
2023-05-24T04:05:37.542Z,87.16
2023-05-24T04:06:37.447Z,86.85
2023-05-24T04:07:37.540Z,86.75
2023-05-24T04:08:37.427Z,86.75
2023-05-24T04:09:37.411Z,86.50
2023-05-24T04:10:37.512Z,86.40
2023-05-24T04:11:37.387Z,86.29
2023-05-24T04:12:37.404Z,85.99
2023-05-24T04:13:37.352Z,85.78
2023-05-24T04:14:37.361Z,85.53
2023-05-24T04:15:37.868Z,85.53
2023-05-24T04:16:37.656Z,85.42
2023-05-24T04:17:38.018Z,85.32
2023-05-24T04:18:37.359Z,85.11
2023-05-24T04:19:37.275Z,84.81
2023-05-24T04:20:37.434Z,84.45
2023-05-24T04:21:37.274Z,84.36
2023-05-24T04:22:37.205Z,84.25
2023-05-24T04:23:37.250Z,84.25
2023-05-24T04:24:37.486Z,84.25
2023-05-24T09:52:50.745Z,44.03
2023-05-24T09:53:50.685Z,44.03
2023-05-24T09:54:50.689Z,43.40
2023-05-24T09:55:50.711Z,43.80
2023-05-24T09:56:50.680Z,44.82
2023-05-24T09:57:50.680Z,44.31
2023-05-24T09:58:50.702Z,44.11
2023-05-24T09:59:50.627Z,44.01
2023-05-24T10:00:50.713Z,43.10
2023-05-24T10:01:50.700Z,44.01
2023-05-24T10:02:53.088Z,43.80
2023-05-24T10:03:50.669Z,44.92
2023-05-24T10:04:50.629Z,44.49
2023-05-24T10:05:50.561Z,43.89
2023-05-24T10:06:50.594Z,42.92
2023-05-24T10:07:50.525Z,45.37
2023-05-24T10:08:50.598Z,43.85
2023-05-24T10:09:50.520Z,44.58
2023-05-24T10:10:50.518Z,44.58
2023-05-24T10:11:50.546Z,44.68
2023-05-24T10:12:50.511Z,44.78
2023-05-24T10:13:50.471Z,44.78
2023-05-24T10:14:50.515Z,44.86
2023-05-24T10:15:50.507Z,45.06
2023-05-24T10:16:50.523Z,44.66
2023-05-24T10:17:50.509Z,44.86
2023-05-24T10:18:50.530Z,44.66
2023-05-24T10:19:50.460Z,44.76
2023-05-24T10:20:50.918Z,44.96
2023-05-24T10:21:50.545Z,44.46
2023-05-24T10:22:50.410Z,44.96
2023-05-24T10:23:50.418Z,45.06
2023-05-24T10:25:00.337Z,45.16
2023-05-24T10:25:50.322Z,44.74
2023-05-24T10:26:55.950Z,44.23
2023-05-24T10:27:50.289Z,44.34
2023-05-24T10:28:50.307Z,43.60
2023-05-24T10:29:50.277Z,43.71
2023-05-24T10:30:50.469Z,43.28
2023-05-24T10:31:50.265Z,43.59
2023-05-24T10:32:50.442Z,43.46
2023-05-24T10:33:50.225Z,43.14
2023-05-24T10:34:50.251Z,42.15
2023-05-24T10:35:50.218Z,41.36
2023-05-24T10:36:50.264Z,42.80
2023-05-24T10:37:50.208Z,42.90
2023-05-24T10:38:50.209Z,43.20
2023-05-24T10:39:50.175Z,42.29
2023-05-24T10:40:50.287Z,43.28
2023-05-24T10:41:50.452Z,42.27
2023-05-24T10:42:50.337Z,42.68
2023-05-24T10:44:07.331Z,41.69
2023-05-24T10:44:51.125Z,42.82
2023-05-24T10:45:50.179Z,43.32
2023-05-24T10:46:50.175Z,42.52
2023-05-24T10:47:50.168Z,43.10
2023-05-24T10:48:50.079Z,42.52
2023-05-24T10:49:50.089Z,43.20
2023-05-24T10:50:50.067Z,43.10
2023-05-24T10:51:50.080Z,43.40
2023-05-24T10:52:50.048Z,42.90
2023-05-24T10:53:50.054Z,42.29
2023-05-24T10:55:50.997Z,42.70
2023-05-24T10:56:50.321Z,42.07
2023-05-24T10:57:49.944Z,42.27
2023-05-24T10:58:50.015Z,42.96
2023-05-24T10:59:49.960Z,42.46
2023-05-24T11:00:50.163Z,42.96
2023-05-24T11:01:50.049Z,43.16
2023-05-24T11:02:49.967Z,42.76
2023-05-24T11:03:49.889Z,43.34
2023-05-24T11:04:49.891Z,42.94
2023-05-24T11:05:50.034Z,42.64
2023-05-24T11:06:49.882Z,42.74
2023-05-24T11:07:49.850Z,42.52
2023-05-24T11:08:49.892Z,41.89
2023-05-24T11:09:49.822Z,42.47
2023-05-24T11:10:49.842Z,42.25
2023-05-24T11:11:49.868Z,40.24
2023-05-24T11:12:49.794Z,40.36
2023-05-24T11:13:49.770Z,40.86
2023-05-24T11:14:49.848Z,40.58
2023-05-24T11:15:49.854Z,40.70
2023-05-24T11:16:49.780Z,41.51
2023-05-24T11:17:49.790Z,41.83
2023-05-24T11:18:49.776Z,41.02
2023-05-24T11:19:49.729Z,40.52
2023-05-24T11:20:49.802Z,42.13
2023-05-24T11:21:49.687Z,42.13
2023-05-24T11:22:49.778Z,41.83
2023-05-24T11:23:49.671Z,42.13
2023-05-24T11:24:49.690Z,42.64
2023-05-24T11:25:49.709Z,42.03
2023-05-24T11:26:49.660Z,41.93
2023-05-24T11:27:49.681Z,42.13
2023-05-24T11:28:49.685Z,42.54
2023-05-24T11:29:49.609Z,41.95
2023-05-24T11:30:49.622Z,43.16
2023-05-24T11:31:49.753Z,42.46
2023-05-24T11:32:49.628Z,41.77
2023-05-24T11:33:49.543Z,42.47
2023-05-24T11:34:49.582Z,43.08
2023-05-24T11:35:49.581Z,42.70
2023-05-24T11:36:49.536Z,43.51
2023-05-24T11:37:49.512Z,43.40
2023-05-24T11:38:49.614Z,43.20
2023-05-24T11:39:49.482Z,43.20
2023-05-24T11:40:49.496Z,42.98
2023-05-24T11:41:49.526Z,42.88
2023-05-24T11:42:50.044Z,42.29
2023-05-24T11:43:49.442Z,43.18
2023-05-24T11:44:49.449Z,42.58
2023-05-24T11:45:49.475Z,43.77
2023-05-24T11:46:49.434Z,43.34
2023-05-24T11:47:49.440Z,42.54
2023-05-24T11:48:49.450Z,42.72
2023-05-24T11:49:49.404Z,42.11
2023-05-24T11:50:50.442Z,41.59
2023-05-24T11:51:49.390Z,41.20
2023-05-24T11:52:49.367Z,42.01
2023-05-24T11:53:49.976Z,42.33
2023-05-24T11:54:49.333Z,41.85
2023-05-24T11:55:49.363Z,42.25
2023-05-24T11:56:49.301Z,41.36
2023-05-24T11:57:49.367Z,42.90
2023-05-24T11:58:49.298Z,43.63
2023-05-24T11:59:49.301Z,44.03
2023-05-24T12:00:49.266Z,44.76
2023-05-24T12:01:49.231Z,46.37
2023-05-24T12:02:49.413Z,45.57
2023-05-24T12:03:49.497Z,45.26
2023-05-24T12:04:49.322Z,45.89
2023-05-24T12:05:49.288Z,45.99
2023-05-24T12:06:49.212Z,46.09
2023-05-24T12:07:49.173Z,45.91
2023-05-24T12:08:49.282Z,46.01
2023-05-24T12:09:49.135Z,46.72
2023-05-24T12:10:49.143Z,46.54
2023-05-24T12:11:49.110Z,46.24
2023-05-24T12:12:49.145Z,47.15
2023-05-24T12:13:49.147Z,47.47
2023-05-24T12:14:49.094Z,47.27
2023-05-24T12:15:49.182Z,47.27
2023-05-24T12:16:49.118Z,47.17
2023-05-24T12:17:49.074Z,47.38
2023-05-24T12:19:02.303Z,47.07
2023-05-24T12:19:50.067Z,47.05
2023-05-24T12:20:49.122Z,46.75
2023-05-24T12:21:49.004Z,46.42
2023-05-24T12:22:49.069Z,46.80
2023-05-24T12:23:48.992Z,46.30
2023-05-24T12:24:49.092Z,45.69
2023-05-24T12:25:49.035Z,45.99
2023-05-24T12:26:48.966Z,45.57
2023-05-24T12:27:48.930Z,44.86
2023-05-24T12:28:48.962Z,44.86
2023-05-24T12:29:48.952Z,44.76
2023-05-24T12:30:48.926Z,44.86
2023-05-24T12:31:48.935Z,45.26
2023-05-24T12:32:49.018Z,44.86
2023-05-24T12:33:48.861Z,45.08
2023-05-24T12:34:48.899Z,45.29
2023-05-24T12:35:48.875Z,46.50
2023-05-24T12:36:48.845Z,46.22
2023-05-24T12:37:48.828Z,45.91
2023-05-24T12:38:48.852Z,46.95
2023-05-24T12:39:48.802Z,47.25
2023-05-24T12:41:00.118Z,46.95
2023-05-24T12:41:49.801Z,47.35
2023-05-24T12:42:48.842Z,46.67
2023-05-24T12:43:48.762Z,47.70
2023-05-24T12:44:48.769Z,48.33
2023-05-24T12:45:48.756Z,48.43
2023-05-24T12:46:48.765Z,48.83
2023-05-24T12:47:48.782Z,49.55
2023-05-24T12:48:48.713Z,49.44
2023-05-24T12:49:48.755Z,49.65
2023-05-24T12:50:48.719Z,50.76
2023-05-24T12:51:49.542Z,49.75
2023-05-24T12:52:48.777Z,50.05
2023-05-24T12:53:48.671Z,50.59
2023-05-24T12:54:48.668Z,50.89
2023-05-24T12:55:48.740Z,50.68
2023-05-24T12:56:48.762Z,50.79
2023-05-24T12:57:48.593Z,50.89
2023-05-24T12:58:48.705Z,51.39
2023-05-24T12:59:48.596Z,50.89
2023-05-24T13:00:48.648Z,51.60
2023-05-24T13:01:48.565Z,51.39
2023-05-24T13:02:48.649Z,50.35
2023-05-24T13:03:48.525Z,50.46
2023-05-24T13:04:48.603Z,50.76
2023-05-24T13:05:48.649Z,50.84
2023-05-24T13:06:48.702Z,50.84
2023-05-24T13:07:48.481Z,50.13
2023-05-24T13:08:48.517Z,49.80
2023-05-24T13:09:48.474Z,49.19
2023-05-24T13:10:48.622Z,48.97
2023-05-24T13:11:48.490Z,48.24
2023-05-24T13:12:48.464Z,48.34
2023-05-24T13:13:48.421Z,47.81
2023-05-24T13:14:50.089Z,47.91
2023-05-24T13:15:48.404Z,47.08
2023-05-24T13:16:48.548Z,47.59
2023-05-24T13:17:48.469Z,47.19
2023-05-24T13:18:48.395Z,46.78
2023-05-24T13:19:48.349Z,46.66
2023-05-24T13:20:48.521Z,46.66
2023-05-24T13:21:48.344Z,46.76
2023-05-24T13:22:48.470Z,46.84
2023-05-24T13:23:48.317Z,45.70
2023-05-24T13:24:48.311Z,46.21
2023-05-24T13:25:48.339Z,45.20
2023-05-24T13:26:48.286Z,45.30
2023-05-24T13:27:48.290Z,45.90
2023-05-24T13:29:15.102Z,45.30
2023-05-24T13:30:00.279Z,44.71
2023-05-24T13:30:49.300Z,44.23
2023-05-24T13:31:48.244Z,44.46
2023-05-24T13:32:48.286Z,45.87
2023-05-24T13:33:48.189Z,45.75
2023-05-24T13:34:48.210Z,45.65
2023-05-24T13:35:48.230Z,45.85
2023-05-24T13:36:48.178Z,45.93
2023-05-24T13:37:48.156Z,46.13
2023-05-24T13:38:52.289Z,45.53
2023-05-24T13:39:49.130Z,45.61
2023-05-24T13:40:48.140Z,45.70
2023-05-24T13:41:48.122Z,45.07
2023-05-24T13:42:48.123Z,44.17
2023-05-24T13:43:48.104Z,45.07
2023-05-24T13:44:48.104Z,44.37
2023-05-24T13:45:48.077Z,44.87
2023-05-24T13:46:48.125Z,44.37
2023-05-24T13:47:48.067Z,44.85
2023-05-24T13:48:48.034Z,43.65
2023-05-24T13:49:48.023Z,44.05
2023-05-24T13:50:48.032Z,44.35
2023-05-24T13:51:47.983Z,44.83
2023-05-24T13:52:48.029Z,44.33
2023-05-24T13:53:48.088Z,44.13
2023-05-24T13:54:47.982Z,44.92
2023-05-24T13:55:47.994Z,44.31
2023-05-24T13:56:47.949Z,44.59
2023-05-24T13:57:52.073Z,44.39
2023-05-24T13:58:47.978Z,43.79
2023-05-24T13:59:47.899Z,44.07
2023-05-24T14:00:47.931Z,43.46
2023-05-24T14:01:47.934Z,43.64
2023-05-24T14:02:47.914Z,42.96
2023-05-24T14:03:47.960Z,43.88
2023-05-24T14:04:47.875Z,44.79
2023-05-24T14:05:48.059Z,44.49
2023-05-24T14:06:49.844Z,44.19
2023-05-24T14:07:47.848Z,44.59
2023-05-24T14:08:47.788Z,43.80
2023-05-24T14:09:47.825Z,44.81
2023-05-24T14:10:47.820Z,43.80
2023-05-24T14:11:47.780Z,44.39
2023-05-24T14:12:56.063Z,43.48
2023-05-24T14:15:48.078Z,44.37
2023-05-24T14:16:47.758Z,44.47
2023-05-24T14:17:47.815Z,43.26
2023-05-24T14:18:47.735Z,43.99
2023-05-24T14:19:47.695Z,44.29
2023-05-24T14:20:47.670Z,44.69
2023-05-24T14:21:47.660Z,44.39
2023-05-24T14:22:47.691Z,44.41
2023-05-24T14:23:47.670Z,44.51
2023-05-24T14:24:47.633Z,45.54
2023-05-24T14:25:47.636Z,45.14
2023-05-24T14:26:47.803Z,45.54
2023-05-24T14:27:47.599Z,46.04
2023-05-24T14:28:47.560Z,46.42
2023-05-24T14:29:47.613Z,46.53
2023-05-24T14:30:47.553Z,45.72
2023-05-24T14:31:47.599Z,45.42
2023-05-24T14:32:47.804Z,45.64
2023-05-24T14:33:47.540Z,45.82
2023-05-24T14:34:47.524Z,45.82
2023-05-24T14:35:47.508Z,44.92
2023-05-24T14:36:47.529Z,45.62
2023-05-24T14:37:47.657Z,46.02
2023-05-24T14:38:47.473Z,46.02
2023-05-24T14:39:47.490Z,45.12
2023-05-24T14:40:47.844Z,45.42
2023-05-24T14:41:47.620Z,44.92
2023-05-24T14:42:47.438Z,45.52
2023-05-24T14:43:47.438Z,45.62
2023-05-24T14:44:47.428Z,45.32
2023-05-24T14:45:47.656Z,45.19
2023-05-24T14:46:47.377Z,44.49
2023-05-24T14:47:47.649Z,44.79
2023-05-24T14:48:47.356Z,45.39
2023-05-24T14:49:47.356Z,44.51
2023-05-24T14:50:47.309Z,45.03
2023-05-24T14:51:47.310Z,46.04
2023-05-24T14:52:47.294Z,45.54
2023-05-24T14:53:47.375Z,46.45
2023-05-24T14:54:47.268Z,45.86
2023-05-24T14:55:47.534Z,46.57
2023-05-24T14:56:47.323Z,46.77
2023-05-24T14:57:47.257Z,46.57
2023-05-24T14:58:47.222Z,46.19
2023-05-24T14:59:47.233Z,45.20
2023-05-24T15:00:47.415Z,46.31
2023-05-24T15:01:47.264Z,46.81
2023-05-24T15:02:47.240Z,46.92
2023-05-24T15:03:47.361Z,47.22
2023-05-24T15:04:47.159Z,47.72
2023-05-24T15:05:47.280Z,48.13
2023-05-24T15:06:47.190Z,48.43
2023-05-24T15:07:47.153Z,47.62
2023-05-24T15:08:47.295Z,47.92
2023-05-24T15:09:47.149Z,48.33
2023-05-24T15:10:47.099Z,47.22
2023-05-24T15:11:47.107Z,47.32
2023-05-24T15:12:47.087Z,47.52
2023-05-24T15:13:47.179Z,48.02
2023-05-24T15:14:47.044Z,47.72
2023-05-24T15:15:47.066Z,48.33
2023-05-24T15:16:47.081Z,47.62
2023-05-24T15:17:47.092Z,47.62
2023-05-24T15:18:47.061Z,47.92
2023-05-24T15:19:47.077Z,48.33
2023-05-24T15:20:47.347Z,48.05
2023-05-24T15:21:46.992Z,48.65
2023-05-24T15:22:46.944Z,48.55
2023-05-24T15:23:46.957Z,48.35
2023-05-24T15:24:46.928Z,48.45
2023-05-24T15:25:47.016Z,48.27
2023-05-24T15:26:46.915Z,48.78
2023-05-24T15:27:46.978Z,49.28
2023-05-24T15:28:47.097Z,49.08
2023-05-24T15:29:46.897Z,49.21
2023-05-24T15:30:46.874Z,49.71
2023-05-24T15:31:46.936Z,49.71
2023-05-24T15:32:46.940Z,49.71
2023-05-24T15:33:46.841Z,50.12
2023-05-24T15:34:46.866Z,49.81
2023-05-24T15:35:46.843Z,50.04
2023-05-24T15:36:46.792Z,50.14
2023-05-24T15:37:46.817Z,50.54
2023-05-24T15:38:46.839Z,50.54
2023-05-24T15:39:46.776Z,51.07
2023-05-24T15:40:46.762Z,50.87
2023-05-24T15:41:46.765Z,51.17
2023-05-24T15:42:46.754Z,51.68
2023-05-24T15:43:46.731Z,51.90
2023-05-24T15:44:47.002Z,52.51
2023-05-24T15:45:46.712Z,52.01
2023-05-24T15:46:46.799Z,52.13
2023-05-24T15:47:46.764Z,52.54
2023-05-24T15:48:47.136Z,52.54
2023-05-24T15:49:46.664Z,53.17
2023-05-24T15:52:03.469Z,53.58
2023-05-24T15:52:47.619Z,54.00
2023-05-24T15:53:46.656Z,53.91
2023-05-24T15:54:46.583Z,53.70
2023-05-24T15:55:46.673Z,53.80
2023-05-24T15:56:46.572Z,53.83
2023-05-24T15:57:46.586Z,54.24
2023-05-24T15:58:46.634Z,54.77
2023-05-24T15:59:46.551Z,54.97
2023-05-24T16:00:46.506Z,55.47
2023-05-24T16:01:46.599Z,55.17
2023-05-24T16:02:46.574Z,54.97
2023-05-24T16:03:46.621Z,55.27
2023-05-24T16:04:46.544Z,55.71
2023-05-24T16:05:46.475Z,56.01
2023-05-24T16:06:50.209Z,55.80
2023-05-24T16:07:46.468Z,55.91
2023-05-24T16:08:47.054Z,56.41
2023-05-24T16:09:46.444Z,56.21
2023-05-24T16:10:46.406Z,56.31
2023-05-24T16:11:47.595Z,56.11
2023-05-24T16:12:46.391Z,56.31
2023-05-24T16:13:46.405Z,56.72
2023-05-24T16:14:46.410Z,56.01
2023-05-24T16:15:46.382Z,56.11
2023-05-24T16:16:46.363Z,56.21
2023-05-24T16:17:46.384Z,56.82
2023-05-24T16:18:46.317Z,56.70
2023-05-24T16:19:46.415Z,56.70
2023-05-24T16:20:46.671Z,56.90
2023-05-24T16:21:46.325Z,56.79
2023-05-24T16:22:46.263Z,56.90
2023-05-24T16:23:46.395Z,56.70
2023-05-24T16:24:46.260Z,56.70
2023-05-24T16:25:46.298Z,57.10
2023-05-24T16:26:46.276Z,57.60
2023-05-24T16:27:46.390Z,57.40
2023-05-24T16:28:46.988Z,57.60
2023-05-24T16:29:46.535Z,57.50
2023-05-24T16:30:46.186Z,57.71
2023-05-24T16:31:46.234Z,57.71
2023-05-24T16:32:46.169Z,57.71
2023-05-24T16:33:46.145Z,57.33
2023-05-24T16:35:47.131Z,57.84
2023-05-24T16:36:46.092Z,58.65
2023-05-24T16:37:46.113Z,58.65
2023-05-24T16:38:46.087Z,58.34
2023-05-24T16:39:46.091Z,58.65
2023-05-24T16:40:46.058Z,58.24
2023-05-24T16:41:46.086Z,57.84
2023-05-24T16:42:46.059Z,57.84
2023-05-24T16:43:46.044Z,58.24
2023-05-24T16:44:46.023Z,58.54
2023-05-24T16:45:46.142Z,58.58
2023-05-24T16:46:46.306Z,58.58
2023-05-24T16:47:46.110Z,59.39
2023-05-24T16:48:46.004Z,59.79
2023-05-24T16:49:45.991Z,59.69
2023-05-24T16:50:46.010Z,59.89
2023-05-24T16:51:45.954Z,60.91
2023-05-24T16:52:45.921Z,61.52
2023-05-24T16:53:45.921Z,61.21
2023-05-24T16:54:45.896Z,61.62
2023-05-24T16:55:45.924Z,61.55
2023-05-24T16:56:45.855Z,62.05
2023-05-24T16:57:45.876Z,61.75
2023-05-24T16:58:45.857Z,61.44
2023-05-24T16:59:45.901Z,61.85
2023-05-24T17:00:45.824Z,61.95
2023-05-24T17:01:45.892Z,61.14
2023-05-24T17:02:45.953Z,61.32
2023-05-24T17:03:45.952Z,61.01
2023-05-24T17:04:45.851Z,60.81
2023-05-24T17:05:45.782Z,60.81
2023-05-24T17:06:45.785Z,60.50
2023-05-24T17:07:45.781Z,60.58
2023-05-24T17:08:45.717Z,60.27
2023-05-24T17:09:45.740Z,60.17
2023-05-24T17:10:45.884Z,59.97
2023-05-24T17:11:45.961Z,59.84
2023-05-24T17:12:45.822Z,59.84
2023-05-24T17:13:45.705Z,60.24
2023-05-24T17:14:45.662Z,60.17
2023-05-24T17:15:45.838Z,60.27
2023-05-24T17:16:45.691Z,60.27
2023-05-24T17:17:45.745Z,60.68
2023-05-24T17:18:45.629Z,60.68
2023-05-24T17:19:45.625Z,61.01
2023-05-24T17:20:45.981Z,61.41
2023-05-24T17:21:45.605Z,61.44
2023-05-24T17:22:45.577Z,61.75
2023-05-24T17:23:45.603Z,61.95
2023-05-24T17:24:45.534Z,62.18
2023-05-24T17:25:45.624Z,62.29
2023-05-24T17:26:45.515Z,62.70
2023-05-24T17:27:45.776Z,62.79
2023-05-24T17:28:45.546Z,63.10
2023-05-24T17:29:45.506Z,63.10
2023-05-24T17:30:45.477Z,63.13
2023-05-24T17:31:45.526Z,63.23
2023-05-24T17:32:45.485Z,63.64
2023-05-24T17:33:45.479Z,63.64
2023-05-24T17:34:45.416Z,63.23
2023-05-24T17:35:45.421Z,63.64
2023-05-24T17:36:45.411Z,63.84
2023-05-24T17:37:45.402Z,63.54
2023-05-24T17:38:45.386Z,63.84
2023-05-24T17:39:45.382Z,63.84
2023-05-24T17:40:45.410Z,63.84
2023-05-24T17:41:45.392Z,63.91
2023-05-24T17:42:45.311Z,63.71
2023-05-24T17:43:45.359Z,63.07
2023-05-24T17:44:45.291Z,62.43
2023-05-24T17:45:45.721Z,62.43
2023-05-24T17:46:45.395Z,61.69
2023-05-24T17:47:45.338Z,61.36
2023-05-24T17:48:45.352Z,60.85
2023-05-24T17:49:45.256Z,60.01
2023-05-24T17:50:45.245Z,59.58
2023-05-24T17:51:45.229Z,59.58
2023-05-24T17:52:45.274Z,59.45
2023-05-24T17:53:45.240Z,58.84
2023-05-24T17:54:45.184Z,58.00
2023-05-24T17:55:45.372Z,57.80
2023-05-24T17:56:45.147Z,57.27
2023-05-24T17:57:45.183Z,56.43
2023-05-24T17:58:47.474Z,56.43
2023-05-24T17:59:45.186Z,56.00
2023-05-24T18:00:45.113Z,55.90
2023-05-24T18:01:45.287Z,55.36
2023-05-24T18:02:45.207Z,54.96
2023-05-24T18:03:45.130Z,54.66
2023-05-24T18:04:45.082Z,54.56
2023-05-24T18:05:45.126Z,54.56
2023-05-24T18:06:45.054Z,54.66
2023-05-24T18:07:48.678Z,54.43
2023-05-24T18:08:45.019Z,53.40
2023-05-24T18:09:45.038Z,52.87
2023-05-24T18:10:45.010Z,52.56
2023-05-24T18:11:45.477Z,52.76
2023-05-24T18:12:44.982Z,52.47
2023-05-24T18:13:45.022Z,51.96
2023-05-24T18:14:44.977Z,52.06
2023-05-24T18:15:45.244Z,52.26
2023-05-24T18:16:44.968Z,52.16
2023-05-24T18:17:45.005Z,52.56
2023-05-24T18:18:44.942Z,52.16
2023-05-24T18:19:44.890Z,52.16
2023-05-24T18:20:44.977Z,51.40
2023-05-24T18:21:44.874Z,51.00
2023-05-24T18:22:44.893Z,50.68
2023-05-24T18:23:44.912Z,50.37
2023-05-24T18:24:44.914Z,50.27